Time;durP1;ratioP1;P1;durP2;ratioP2;P2;SDS_P1;SDS_P2;PMS_P1;PMS_P2;Temp;Humidity;BMP_temperature;BMP_pressure;BME280_temperature;BME280_humidity;BME280_pressure;Samples;Min_cycle;Max_cycle;Signal;HPM_P1;HPM_P2
2022/08/08 00:00:13;;;;;;;1.55;1.02;;;;;25.80;101277.00;;;;2078494;28;20451;-53
2022/08/08 00:01:39;;;;;;;1.50;1.20;;;;;25.80;101277.00;;;;2079116;28;20225;-53
2022/08/08 00:02:49;;;;;;;1.20;1.10;;;;;25.90;101284.00;;;;2086402;28;20545;-53
2022/08/08 00:03:58;;;;;;;1.57;1.40;;;;;25.90;101276.00;;;;2086887;28;20573;-53
2022/08/08 00:05:24;;;;;;;1.30;1.20;;;;;25.90;101275.00;;;;2085044;28;20458;-52
2022/08/08 00:06:36;;;;;;;1.17;1.07;;;;;25.80;101289.00;;;;2086554;28;20464;-53
2022/08/08 00:07:49;;;;;;;1.90;1.70;;;;;25.90;101275.00;;;;2086140;28;20999;-53
2022/08/08 00:09:04;;;;;;;1.63;1.43;;;;;25.90;101285.00;;;;2086781;28;20465;-53
2022/08/08 00:10:15;;;;;;;1.30;1.20;;;;;25.80;101278.00;;;;2086886;28;20451;-53
2022/08/08 00:11:19;;;;;;;1.67;1.40;;;;;25.90;101278.00;;;;2086837;28;20462;-53
2022/08/08 00:12:29;;;;;;;1.40;1.30;;;;;25.90;101288.00;;;;2087183;28;20448;-53
2022/08/08 00:14:05;;;;;;;1.70;1.60;;;;;25.80;101282.00;;;;2085003;28;20557;-52
2022/08/08 00:15:10;;;;;;;1.43;1.33;;;;;25.80;101284.00;;;;2080104;28;20546;-54
2022/08/08 00:16:21;;;;;;;1.50;1.20;;;;;25.80;101285.00;;;;2074063;28;20507;-53
2022/08/08 00:17:26;;;;;;;1.43;1.33;;;;;25.80;101282.00;;;;2070914;28;20479;-52
2022/08/08 00:18:41;;;;;;;1.50;1.20;;;;;25.90;101277.00;;;;2076463;28;20464;-53
2022/08/08 00:19:47;;;;;;;1.33;1.23;;;;;25.90;101258.00;;;;2080307;28;20448;-53
2022/08/08 00:20:55;;;;;;;1.70;1.50;;;;;25.90;101283.00;;;;2085919;28;20451;-53
2022/08/08 00:21:59;;;;;;;2.53;1.50;;;;;25.80;101284.00;;;;2085106;28;20496;-53
2022/08/08 00:23:02;;;;;;;1.53;1.40;;;;;25.80;101302.00;;;;2087035;28;20498;-53
2022/08/08 00:24:05;;;;;;;1.40;1.30;;;;;25.80;101286.00;;;;2086681;28;20462;-53
2022/08/08 00:25:09;;;;;;;1.88;1.08;;;;;25.80;101292.00;;;;2060346;28;20225;-53
2022/08/08 00:26:11;;;;;;;1.58;1.35;;;;;25.90;101289.00;;;;2070385;28;20728;-53
2022/08/08 00:27:11;;;;;;;1.60;1.30;;;;;25.80;101292.00;;;;2071028;28;20221;-52
2022/08/08 00:28:14;;;;;;;1.43;1.33;;;;;25.80;101293.00;;;;2061734;28;20458;-53
2022/08/08 00:29:21;;;;;;;1.90;1.40;;;;;25.80;101295.00;;;;2079196;28;20217;-53
2022/08/08 00:30:22;;;;;;;1.70;1.60;;;;;25.80;101255.00;;;;2087169;28;20701;-53
2022/08/08 00:31:28;;;;;;;1.77;1.43;;;;;25.80;101274.00;;;;2086950;28;20213;-53
2022/08/08 00:32:39;;;;;;;1.75;1.30;;;;;25.80;101291.00;;;;2079798;28;20220;-54
2022/08/08 00:33:42;;;;;;;1.70;1.40;;;;;25.80;101286.00;;;;2085957;28;20219;-53
2022/08/08 00:35:10;;;;;;;1.90;1.63;;;;;25.80;101289.00;;;;2084738;28;20447;-53
2022/08/08 00:36:29;;;;;;;1.93;1.73;;;;;25.80;101297.00;;;;2082224;28;20451;-53
2022/08/08 00:37:44;;;;;;;1.47;1.37;;;;;25.90;101290.00;;;;2083433;28;21389;-54
2022/08/08 00:38:48;;;;;;;1.60;1.50;;;;;25.80;101284.00;;;;2077372;28;20542;-53
2022/08/08 00:40:27;;;;;;;1.90;1.50;;;;;25.80;101283.00;;;;2078507;28;20452;-53
2022/08/08 00:42:06;;;;;;;1.90;1.50;;;;;25.80;101288.00;;;;2081468;28;20513;-53
2022/08/08 00:43:16;;;;;;;1.83;1.47;;;;;25.80;101281.00;;;;2085585;28;20205;-53
2022/08/08 00:44:40;;;;;;;1.37;1.20;;;;;25.80;101284.00;;;;2086764;28;20459;-53
2022/08/08 00:45:55;;;;;;;1.70;1.60;;;;;25.80;101279.00;;;;2080930;28;20544;-53
2022/08/08 00:47:20;;;;;;;1.40;1.30;;;;;25.80;101281.00;;;;2087270;28;20459;-53
2022/08/08 00:48:26;;;;;;;1.30;1.20;;;;;25.80;101284.00;;;;2087243;28;20443;-53
2022/08/08 00:49:36;;;;;;;1.33;1.23;;;;;25.80;101281.00;;;;2087697;28;20448;-53
2022/08/08 00:50:58;;;;;;;3.57;1.60;;;;;25.10;101283.00;;;;2087617;28;20482;-53
2022/08/08 00:52:08;;;;;;;1.42;1.33;;;;;25.80;101274.00;;;;2087396;28;20538;-53
2022/08/08 00:53:42;;;;;;;2.08;1.50;;;;;25.80;101276.00;;;;2086562;28;20681;-54
2022/08/08 00:55:12;;;;;;;1.35;1.25;;;;;25.80;101245.00;;;;2078967;28;20213;-53
2022/08/08 00:56:19;;;;;;;1.67;1.47;;;;;25.80;101280.00;;;;2083335;28;20208;-53
2022/08/08 00:57:49;;;;;;;2.13;1.70;;;;;25.80;101273.00;;;;2086050;28;20463;-53
2022/08/08 00:59:19;;;;;;;1.30;1.20;;;;;25.80;101276.00;;;;2086545;28;20448;-53
2022/08/08 01:00:23;;;;;;;1.80;1.60;;;;;25.80;101275.00;;;;2086774;28;20655;-53
2022/08/08 01:01:37;;;;;;;1.40;1.30;;;;;25.80;101271.00;;;;2086400;28;20224;-53
2022/08/08 01:03:31;;;;;;;1.60;1.50;;;;;25.80;101304.00;;;;2078674;28;20980;-53
2022/08/08 01:05:07;;;;;;;1.40;1.30;;;;;25.80;101086.00;;;;2064660;28;20462;-53
2022/08/08 01:06:41;;;;;;;1.63;1.47;;;;;25.80;101283.00;;;;2069384;28;20469;-53
2022/08/08 01:08:26;;;;;;;1.60;1.50;;;;;25.80;101279.00;;;;2068088;28;20476;-53
2022/08/08 01:09:45;;;;;;;1.83;1.45;;;;;25.80;101284.00;;;;2083177;28;20211;-53
2022/08/08 01:10:55;;;;;;;1.70;1.47;;;;;25.80;101289.00;;;;2078573;28;20209;-53
2022/08/08 01:12:10;;;;;;;1.77;1.63;;;;;25.80;101290.00;;;;2078153;28;20463;-53
2022/08/08 01:13:44;;;;;;;1.40;1.30;;;;;25.80;101291.00;;;;2077332;28;20451;-56
2022/08/08 01:15:20;;;;;;;1.20;1.10;;;;;25.80;101282.00;;;;2078202;28;20444;-53
2022/08/08 01:16:44;;;;;;;2.10;1.30;;;;;25.80;101283.00;;;;2085417;28;20452;-53
2022/08/08 01:18:08;;;;;;;2.40;1.30;;;;;25.80;101290.00;;;;2082088;28;20482;-53
2022/08/08 01:19:27;;;;;;;1.65;1.35;;;;;25.80;101286.00;;;;2073435;28;20455;-53
2022/08/08 01:20:39;;;;;;;1.67;1.57;;;;;25.80;101287.00;;;;2072726;28;20222;-53
2022/08/08 01:22:21;;;;;;;1.87;1.40;;;;;25.80;101291.00;;;;2078557;28;20891;-53
2022/08/08 01:23:54;;;;;;;1.90;1.38;;;;;25.80;101286.00;;;;2068978;28;20469;-53
2022/08/08 01:24:59;;;;;;;1.90;1.70;;;;;25.80;101290.00;;;;2085137;28;20686;-53
2022/08/08 01:26:21;;;;;;;1.80;1.60;;;;;25.80;101288.00;;;;2077620;28;20500;-53
2022/08/08 01:27:59;;;;;;;1.40;1.30;;;;;25.80;101288.00;;;;2077412;28;20455;-53
2022/08/08 01:29:57;;;;;;;1.60;1.50;;;;;25.80;101297.00;;;;2082143;28;20454;-53
2022/08/08 01:31:24;;;;;;;1.53;1.43;;;;;25.80;101297.00;;;;2069487;28;20303;-52
2022/08/08 01:32:43;;;;;;;1.67;1.57;;;;;25.80;101293.00;;;;2069534;28;20458;-53
2022/08/08 01:33:46;;;;;;;1.87;1.60;;;;;25.80;101288.00;;;;2069152;28;20441;-55
2022/08/08 01:35:20;;;;;;;1.50;1.40;;;;;25.80;101295.00;;;;2062478;28;21054;-53
2022/08/08 01:36:55;;;;;;;1.77;1.67;;;;;25.80;101290.00;;;;2066474;28;20511;-53
2022/08/08 01:38:46;;;;;;;1.63;1.53;;;;;25.80;101291.00;;;;2077993;28;20213;-53
2022/08/08 01:40:16;;;;;;;1.50;1.40;;;;;25.80;101280.00;;;;2076692;28;20452;-53
2022/08/08 01:41:36;;;;;;;1.60;1.50;;;;;25.80;101287.00;;;;2077970;28;20891;-53
2022/08/08 01:42:52;;;;;;;1.70;1.47;;;;;25.80;101290.00;;;;2080769;28;20541;-53
2022/08/08 01:44:26;;;;;;;1.60;1.50;;;;;25.80;101288.00;;;;2080891;28;20485;-53
2022/08/08 01:45:42;;;;;;;1.60;1.50;;;;;25.80;101284.00;;;;2085916;28;20455;-53
2022/08/08 01:46:45;;;;;;;1.60;1.50;;;;;25.70;101284.00;;;;2082387;28;20810;-53
2022/08/08 01:48:04;;;;;;;1.10;1.00;;;;;25.80;101276.00;;;;2076727;28;20843;-56
2022/08/08 01:49:36;;;;;;;1.97;1.40;;;;;25.80;101280.00;;;;2086566;28;21418;-53
2022/08/08 01:51:13;;;;;;;2.03;1.30;;;;;25.80;101277.00;;;;2086065;28;20443;-52
2022/08/08 01:52:21;;;;;;;1.50;1.40;;;;;25.70;101274.00;;;;2086676;28;20440;-53
2022/08/08 01:53:45;;;;;;;1.60;1.50;;;;;25.80;101272.00;;;;2086997;28;20478;-53
2022/08/08 01:54:57;;;;;;;1.60;1.50;;;;;25.80;101280.00;;;;2086440;28;20501;-53
2022/08/08 01:56:33;;;;;;;1.60;1.40;;;;;25.70;101277.00;;;;2079283;28;20456;-53
2022/08/08 01:57:43;;;;;;;1.80;1.70;;;;;25.70;101247.00;;;;2065348;28;21045;-53
2022/08/08 01:59:08;;;;;;;1.60;1.50;;;;;25.70;101281.00;;;;2065579;28;20536;-53
2022/08/08 02:00:20;;;;;;;1.30;1.20;;;;;25.70;101281.00;;;;2072465;28;20502;-53
2022/08/08 02:01:57;;;;;;;1.40;1.30;;;;;25.80;101275.00;;;;2071424;28;20468;-53
2022/08/08 02:03:35;;;;;;;1.93;1.67;;;;;25.70;101277.00;;;;2078451;28;20436;-53
2022/08/08 02:04:39;;;;;;;1.87;1.63;;;;;25.70;101286.00;;;;2085861;28;20447;-53
2022/08/08 02:05:56;;;;;;;1.57;1.47;;;;;25.70;101285.00;;;;2077788;28;20841;-53
2022/08/08 02:07:04;;;;;;;1.57;1.47;;;;;25.70;101281.00;;;;2083322;28;20452;-53
2022/08/08 02:08:11;;;;;;;1.77;1.67;;;;;25.70;101286.00;;;;2085515;28;20505;-53
2022/08/08 02:09:26;;;;;;;1.80;1.70;;;;;25.70;101289.00;;;;2080656;28;20973;-53
2022/08/08 02:10:36;;;;;;;1.93;1.73;;;;;25.70;101290.00;;;;2076997;28;20448;-53
2022/08/08 02:11:38;;;;;;;1.57;1.47;;;;;25.70;101253.00;;;;2078108;28;20471;-53
2022/08/08 02:12:55;;;;;;;1.70;1.50;;;;;25.70;101287.00;;;;2069773;28;20504;-53
2022/08/08 02:14:00;;;;;;;1.50;1.20;;;;;25.70;101292.00;;;;2068399;28;20463;-52
2022/08/08 02:15:08;;;;;;;2.05;1.40;;;;;25.70;101292.00;;;;2073225;28;20459;-53
2022/08/08 02:16:55;;;;;;;1.50;1.40;;;;;25.70;101288.00;;;;2076604;28;20724;-53
2022/08/08 02:18:05;;;;;;;1.80;1.60;;;;;25.70;101293.00;;;;2077837;28;20443;-53
2022/08/08 02:19:23;;;;;;;1.60;1.40;;;;;25.70;101252.00;;;;2085960;28;20452;-53
2022/08/08 02:20:34;;;;;;;1.40;1.30;;;;;25.70;101286.00;;;;2084778;28;20475;-53
2022/08/08 02:23:21;;;;;;;1.60;1.50;;;;;25.70;101293.00;;;;2081287;28;20459;-52
2022/08/08 02:24:29;;;;;;;2.33;1.30;;;;;25.70;101290.00;;;;2085316;28;20467;-54
2022/08/08 02:25:44;;;;;;;1.40;1.27;;;;;25.70;101292.00;;;;2086047;28;20705;-53
2022/08/08 02:26:57;;;;;;;1.30;1.20;;;;;25.70;101252.00;;;;2086218;28;20509;-52
2022/08/08 02:28:16;;;;;;;1.43;1.20;;;;;25.70;101287.00;;;;2075031;28;20543;-54
2022/08/08 02:29:28;;;;;;;1.30;1.20;;;;;25.70;101281.00;;;;2073230;28;20456;-53
2022/08/08 02:30:35;;;;;;;1.60;1.50;;;;;25.70;101283.00;;;;2078558;28;20293;-53
2022/08/08 02:31:55;;;;;;;1.40;1.30;;;;;25.70;101282.00;;;;2078736;28;20444;-53
2022/08/08 02:33:05;;;;;;;1.60;1.50;;;;;25.70;101285.00;;;;2077770;28;20436;-53
2022/08/08 02:34:08;;;;;;;1.70;1.48;;;;;25.70;101279.00;;;;2078052;28;20467;-53
2022/08/08 02:35:20;;;;;;;1.60;1.50;;;;;25.70;101283.00;;;;2078348;28;20205;-53
2022/08/08 02:36:57;;;;;;;1.40;1.30;;;;;25.70;101315.00;;;;2084090;28;20458;-53
2022/08/08 02:38:35;;;;;;;2.07;1.87;;;;;25.70;101280.00;;;;2084187;28;20454;-54
2022/08/08 02:39:58;;;;;;;1.57;1.47;;;;;25.70;101282.00;;;;2082609;28;20497;-53
2022/08/08 02:41:10;;;;;;;1.70;1.60;;;;;25.70;101284.00;;;;2080520;28;21279;-53
2022/08/08 02:42:38;;;;;;;1.80;1.70;;;;;25.70;101284.00;;;;2078652;28;20448;-53
2022/08/08 02:43:56;;;;;;;1.95;1.70;;;;;25.70;101279.00;;;;2085008;28;20540;-53
2022/08/08 02:45:12;;;;;;;1.70;1.57;;;;;25.70;101284.00;;;;2074535;28;20244;-53
2022/08/08 02:46:22;;;;;;;2.00;1.80;;;;;25.70;101278.00;;;;2083802;28;20991;-53
2022/08/08 02:47:41;;;;;;;1.87;1.67;;;;;25.70;101277.00;;;;2084223;28;20270;-53
2022/08/08 02:49:06;;;;;;;2.30;1.63;;;;;25.70;101284.00;;;;2085663;28;20459;-53
2022/08/08 02:50:28;;;;;;;1.60;1.50;;;;;25.70;101279.00;;;;2083750;28;20478;-53
2022/08/08 02:51:55;;;;;;;1.60;1.50;;;;;25.70;101283.00;;;;2081215;28;20311;-53
2022/08/08 02:53:08;;;;;;;1.73;1.60;;;;;25.70;101287.00;;;;2085118;28;20443;-55
2022/08/08 02:54:19;;;;;;;1.30;1.20;;;;;25.70;101280.00;;;;2081795;28;20439;-53
2022/08/08 02:55:22;;;;;;;1.53;1.43;;;;;25.70;101283.00;;;;2085214;28;20216;-53
2022/08/08 02:57:00;;;;;;;1.65;1.55;;;;;25.70;101282.00;;;;2084950;28;20474;-53
2022/08/08 02:58:09;;;;;;;1.60;1.43;;;;;25.70;101279.00;;;;2082171;28;20213;-53
2022/08/08 02:59:23;;;;;;;1.40;1.30;;;;;25.70;101271.00;;;;2083128;28;20455;-53
2022/08/08 03:00:58;;;;;;;1.60;1.50;;;;;25.70;101276.00;;;;2074939;28;20216;-53
2022/08/08 03:02:22;;;;;;;1.33;1.10;;;;;25.70;101280.00;;;;2064672;28;20464;-53
2022/08/08 03:03:34;;;;;;;2.03;1.80;;;;;25.70;101274.00;;;;2072825;28;20677;-53
2022/08/08 03:04:56;;;;;;;1.90;1.27;;;;;25.70;101275.00;;;;2072601;28;20453;-53
2022/08/08 03:06:22;;;;;;;1.50;1.40;;;;;25.70;101273.00;;;;2070075;28;20491;-55
2022/08/08 03:07:53;;;;;;;1.30;1.20;;;;;25.70;101284.00;;;;2068826;28;20464;-52
2022/08/08 03:09:31;;;;;;;1.90;1.70;;;;;25.70;101276.00;;;;2073645;28;20460;-53
2022/08/08 03:11:20;;;;;;;1.90;1.70;;;;;25.70;101283.00;;;;2077894;28;20455;-53
2022/08/08 03:12:31;;;;;;;1.60;1.50;;;;;25.70;101287.00;;;;2063290;28;20454;-53
2022/08/08 03:13:51;;;;;;;1.70;1.30;;;;;25.70;101282.00;;;;2066041;28;20508;-53
2022/08/08 03:15:33;;;;;;;1.67;1.57;;;;;25.70;101288.00;;;;2066870;28;20328;-53
2022/08/08 03:16:36;;;;;;;1.40;1.30;;;;;25.70;101281.00;;;;2058525;28;20465;-55
2022/08/08 03:18:06;;;;;;;1.98;1.77;;;;;25.70;101281.00;;;;2060417;28;20531;-53
2022/08/08 03:19:21;;;;;;;2.27;2.07;;;;;25.70;101281.00;;;;2055949;28;20342;-53
2022/08/08 03:20:21;;;;;;;1.70;1.60;;;;;25.70;101293.00;;;;2055238;28;20454;-54
2022/08/08 03:21:21;;;;;;;1.60;1.50;;;;;25.70;101281.00;;;;2070510;28;20957;-53
2022/08/08 03:22:22;;;;;;;1.33;1.23;;;;;25.70;101286.00;;;;2070605;28;20224;-53
2022/08/08 03:23:22;;;;;;;1.50;1.40;;;;;25.70;101293.00;;;;2070383;28;20225;-53
2022/08/08 03:24:22;;;;;;;1.50;1.40;;;;;25.70;101294.00;;;;2069986;28;20292;-53
2022/08/08 03:25:25;;;;;;;1.70;1.60;;;;;25.70;101256.00;;;;2070199;28;20214;-53
2022/08/08 03:26:29;;;;;;;2.20;1.50;;;;;25.60;101290.00;;;;2069677;28;20241;-52
2022/08/08 03:27:56;;;;;;;1.60;1.50;;;;;25.70;101292.00;;;;2066101;28;20533;-53
2022/08/08 03:28:59;;;;;;;1.37;1.27;;;;;25.70;101293.00;;;;2070863;28;20525;-53
2022/08/08 03:30:07;;;;;;;4.07;1.67;;;;;25.60;101299.00;;;;2061766;28;20824;-53
2022/08/08 03:33:45;;;;;;;1.67;1.57;;;;;25.60;101258.00;;;;2074143;28;20960;-53
2022/08/08 03:34:45;;;;;;;1.50;1.40;;;;;25.70;101302.00;;;;2071834;28;20457;-53
2022/08/08 03:35:46;;;;;;;1.70;1.60;;;;;25.60;101300.00;;;;2077960;28;20210;-53
2022/08/08 03:36:47;;;;;;;1.30;1.20;;;;;25.60;101300.00;;;;2078375;28;20217;-53
2022/08/08 03:37:47;;;;;;;1.70;1.60;;;;;25.60;101305.00;;;;2077065;28;20230;-53
2022/08/08 03:38:48;;;;;;;2.03;1.87;;;;;25.60;101296.00;;;;2076813;28;20456;-52
2022/08/08 03:39:49;;;;;;;1.37;1.27;;;;;25.60;101298.00;;;;2068910;28;20218;-53
2022/08/08 03:40:53;;;;;;;1.50;1.40;;;;;25.60;101293.00;;;;2078045;28;20507;-53
2022/08/08 03:41:53;;;;;;;1.53;1.43;;;;;25.60;101300.00;;;;2079156;28;20224;-53
2022/08/08 03:42:54;;;;;;;1.87;1.77;;;;;25.60;101305.00;;;;2079696;28;20539;-53
2022/08/08 03:43:55;;;;;;;1.40;1.20;;;;;25.60;101305.00;;;;2079308;28;20232;-53
2022/08/08 03:44:55;;;;;;;1.80;1.70;;;;;25.60;101309.00;;;;2071365;28;20292;-53
2022/08/08 03:45:56;;;;;;;3.00;1.60;;;;;25.60;101306.00;;;;2071023;28;20485;-53
2022/08/08 03:46:56;;;;;;;1.67;1.57;;;;;25.60;101309.00;;;;2070354;28;20238;-53
2022/08/08 03:48:02;;;;;;;1.47;1.33;;;;;25.60;101301.00;;;;2069492;28;20210;-53
2022/08/08 03:49:03;;;;;;;1.83;1.73;;;;;25.60;101310.00;;;;2070453;28;20221;-53
2022/08/08 03:50:04;;;;;;;1.70;1.60;;;;;25.60;101310.00;;;;2069685;28;20461;-55
2022/08/08 03:51:05;;;;;;;1.87;1.77;;;;;25.60;101306.00;;;;2071385;28;20460;-54
2022/08/08 03:52:05;;;;;;;1.80;1.70;;;;;25.60;101276.00;;;;2070684;28;20567;-53
2022/08/08 03:53:10;;;;;;;1.57;1.47;;;;;25.60;101310.00;;;;2063211;28;20537;-53
2022/08/08 03:54:10;;;;;;;2.00;1.47;;;;;25.60;101307.00;;;;2070771;28;20206;-53
2022/08/08 03:55:15;;;;;;;1.60;1.50;;;;;25.60;101327.00;;;;2079280;28;20463;-53
2022/08/08 03:56:15;;;;;;;1.70;1.53;;;;;25.60;101309.00;;;;2079125;28;20229;-53
2022/08/08 03:57:15;;;;;;;1.60;1.50;;;;;25.60;101313.00;;;;2078972;28;20492;-53
2022/08/08 03:58:20;;;;;;;1.60;1.50;;;;;25.60;101310.00;;;;2078145;28;20217;-53
2022/08/08 03:59:20;;;;;;;1.50;1.40;;;;;25.60;101313.00;;;;2070555;28;20214;-52
2022/08/08 04:00:23;;;;;;;1.63;1.53;;;;;25.60;101319.00;;;;2074902;28;20464;-53
2022/08/08 04:01:23;;;;;;;1.50;1.40;;;;;25.60;101329.00;;;;2078846;28;20312;-52
2022/08/08 04:02:23;;;;;;;1.70;1.60;;;;;25.60;101319.00;;;;2070488;28;20598;-52
2022/08/08 04:03:32;;;;;;;1.33;1.23;;;;;25.60;101322.00;;;;2062839;28;20710;-52
2022/08/08 04:04:36;;;;;;;1.50;1.40;;;;;25.60;101323.00;;;;2078867;28;20300;-53
2022/08/08 04:05:36;;;;;;;1.87;1.47;;;;;25.60;101323.00;;;;2078482;28;20463;-52
2022/08/08 04:06:37;;;;;;;1.33;1.23;;;;;25.60;101318.00;;;;2079200;28;20467;-53
2022/08/08 04:07:39;;;;;;;1.50;1.40;;;;;25.60;101325.00;;;;2077380;28;20222;-53
2022/08/08 04:08:39;;;;;;;1.90;1.70;;;;;25.60;101323.00;;;;2078731;28;20463;-53
2022/08/08 04:09:39;;;;;;;1.60;1.50;;;;;25.60;101322.00;;;;2078468;28;20821;-53
2022/08/08 04:10:40;;;;;;;1.47;1.37;;;;;25.60;101379.00;;;;2069894;28;20218;-52
2022/08/08 04:11:41;;;;;;;2.10;1.60;;;;;25.60;101324.00;;;;2059004;28;20214;-53
2022/08/08 04:12:41;;;;;;;1.70;1.60;;;;;25.60;101335.00;;;;2070079;28;20683;-53
2022/08/08 04:13:41;;;;;;;1.70;1.60;;;;;25.60;101330.00;;;;2079234;28;20879;-53
2022/08/08 04:14:42;;;;;;;2.30;1.80;;;;;25.60;101329.00;;;;2077898;28;20672;-54
2022/08/08 04:15:42;;;;;;;1.60;1.50;;;;;25.60;101323.00;;;;2078142;28;20621;-53
2022/08/08 04:16:42;;;;;;;1.60;1.50;;;;;25.60;101317.00;;;;2078717;28;20206;-54
2022/08/08 04:17:43;;;;;;;2.00;1.80;;;;;25.60;101328.00;;;;2077907;28;20217;-52
2022/08/08 04:18:43;;;;;;;2.20;2.00;;;;;25.60;101207.00;;;;2078775;28;20279;-53
2022/08/08 04:19:43;;;;;;;2.00;1.90;;;;;25.60;101329.00;;;;2078714;28;20214;-52
2022/08/08 04:20:44;;;;;;;1.70;1.60;;;;;25.60;101333.00;;;;2078835;28;20221;-53
2022/08/08 04:21:44;;;;;;;1.83;1.63;;;;;25.60;101339.00;;;;2078835;28;20217;-53
2022/08/08 04:22:44;;;;;;;1.73;1.63;;;;;25.60;101332.00;;;;2079385;28;20296;-53
2022/08/08 04:23:45;;;;;;;1.63;1.53;;;;;25.60;101339.00;;;;2079087;28;20198;-53
2022/08/08 04:24:45;;;;;;;1.97;1.80;;;;;25.60;101338.00;;;;2078079;28;20206;-53
2022/08/08 04:25:45;;;;;;;1.77;1.67;;;;;25.60;101338.00;;;;2085536;28;20251;-53
2022/08/08 04:26:46;;;;;;;1.80;1.70;;;;;25.60;101336.00;;;;2087799;28;20213;-53
2022/08/08 04:27:46;;;;;;;1.80;1.70;;;;;25.60;101335.00;;;;2086747;28;20208;-53
2022/08/08 04:28:46;;;;;;;1.63;1.53;;;;;25.60;101318.00;;;;2087918;28;20218;-52
2022/08/08 04:29:47;;;;;;;2.10;1.70;;;;;25.60;101345.00;;;;2087680;28;20236;-52
2022/08/08 04:30:47;;;;;;;2.17;1.97;;;;;25.60;101337.00;;;;2087703;28;20295;-53
2022/08/08 04:31:48;;;;;;;1.60;1.50;;;;;25.60;101333.00;;;;2087762;28;20239;-53
2022/08/08 04:32:48;;;;;;;1.57;1.47;;;;;25.60;101336.00;;;;2087899;28;20213;-53
2022/08/08 04:33:48;;;;;;;2.13;1.93;;;;;25.60;101337.00;;;;2087845;28;20213;-53
2022/08/08 04:34:49;;;;;;;1.70;1.60;;;;;25.60;101333.00;;;;2087383;28;20239;-52
2022/08/08 04:35:49;;;;;;;1.47;1.30;;;;;25.60;101373.00;;;;2087184;28;20213;-53
2022/08/08 04:36:49;;;;;;;1.83;1.73;;;;;25.60;101359.00;;;;2087380;28;20234;-53
2022/08/08 04:37:50;;;;;;;1.73;1.63;;;;;25.60;101388.00;;;;2085158;28;20680;-52
2022/08/08 04:38:50;;;;;;;1.90;1.80;;;;;25.60;101339.00;;;;2084279;28;20904;-52
2022/08/08 04:39:51;;;;;;;1.70;1.60;;;;;25.60;101339.00;;;;2079055;28;20453;-52
2022/08/08 04:40:51;;;;;;;1.90;1.43;;;;;25.60;101336.00;;;;2087216;28;20216;-52
2022/08/08 04:41:51;;;;;;;1.90;1.80;;;;;25.60;101338.00;;;;2086637;28;20227;-53
2022/08/08 04:42:52;;;;;;;1.50;1.40;;;;;25.60;101337.00;;;;2083931;28;20636;-53
2022/08/08 04:43:52;;;;;;;1.80;1.70;;;;;25.60;101340.00;;;;2082604;28;20669;-54
2022/08/08 04:44:54;;;;;;;1.80;1.70;;;;;25.60;101339.00;;;;2087100;28;20219;-53
2022/08/08 04:45:54;;;;;;;1.83;1.73;;;;;25.60;101342.00;;;;2087403;28;20213;-52
2022/08/08 04:46:55;;;;;;;1.87;1.77;;;;;25.60;101335.00;;;;2087546;28;20859;-53
2022/08/08 04:47:58;;;;;;;1.90;1.80;;;;;25.60;101341.00;;;;2086474;28;20569;-52
2022/08/08 04:48:59;;;;;;;1.57;1.47;;;;;25.60;101316.00;;;;2087360;28;20646;-52
2022/08/08 04:49:59;;;;;;;2.27;2.07;;;;;25.60;101342.00;;;;2087204;28;20493;-52
2022/08/08 04:50:59;;;;;;;1.83;1.73;;;;;25.60;101343.00;;;;2086785;28;20205;-52
2022/08/08 04:52:00;;;;;;;1.70;1.60;;;;;25.60;101342.00;;;;2083711;28;20209;-53
2022/08/08 04:53:00;;;;;;;1.60;1.50;;;;;25.60;101341.00;;;;2078819;28;20249;-52
2022/08/08 04:54:00;;;;;;;1.90;1.80;;;;;25.60;101343.00;;;;2079177;28;20285;-52
2022/08/08 04:55:01;;;;;;;2.00;1.80;;;;;25.60;101346.00;;;;2078875;28;20213;-53
2022/08/08 04:56:01;;;;;;;1.80;1.70;;;;;25.60;101338.00;;;;2078978;28;20244;-53
2022/08/08 04:57:02;;;;;;;2.10;1.90;;;;;25.60;101345.00;;;;2078920;28;22894;-53
2022/08/08 04:58:02;;;;;;;1.70;1.60;;;;;25.60;101340.00;;;;2076544;28;20233;-54
2022/08/08 04:59:02;;;;;;;1.90;1.80;;;;;25.60;101340.00;;;;2078543;28;20217;-53
2022/08/08 05:00:03;;;;;;;1.70;1.60;;;;;25.60;101350.00;;;;2078326;28;20730;-53
2022/08/08 05:01:04;;;;;;;1.83;1.73;;;;;25.60;101345.00;;;;2078222;28;20217;-53
2022/08/08 05:02:04;;;;;;;1.97;1.87;;;;;25.60;101348.00;;;;2084174;28;20461;-53
2022/08/08 05:03:04;;;;;;;1.93;1.70;;;;;25.60;101356.00;;;;2087346;28;20205;-52
2022/08/08 05:04:05;;;;;;;1.90;1.80;;;;;25.60;101339.00;;;;2087144;28;20204;-53
2022/08/08 05:05:05;;;;;;;1.80;1.67;;;;;25.60;101345.00;;;;2086409;28;20241;-53
2022/08/08 05:06:06;;;;;;;2.00;1.80;;;;;25.60;101351.00;;;;2086657;28;20212;-52
2022/08/08 05:07:07;;;;;;;1.60;1.50;;;;;25.60;101355.00;;;;2086963;28;20561;-52
2022/08/08 05:08:07;;;;;;;1.50;1.27;;;;;25.60;101355.00;;;;2079199;28;20225;-53
2022/08/08 05:09:08;;;;;;;2.07;1.87;;;;;25.60;101350.00;;;;2078966;28;20456;-53
2022/08/08 05:10:08;;;;;;;2.20;2.00;;;;;25.60;101351.00;;;;2087325;28;20224;-53
2022/08/08 05:11:12;;;;;;;1.67;1.57;;;;;25.60;101360.00;;;;2087144;28;20217;-52
2022/08/08 05:12:13;;;;;;;1.93;1.80;;;;;25.60;101356.00;;;;2087495;28;20291;-52
2022/08/08 05:13:13;;;;;;;2.10;1.90;;;;;25.60;101348.00;;;;2079196;28;20445;-52
2022/08/08 05:14:13;;;;;;;1.60;1.50;;;;;25.60;101352.00;;;;2079168;28;20636;-52
2022/08/08 05:15:14;;;;;;;1.83;1.70;;;;;25.60;101341.00;;;;2079188;28;20296;-52
2022/08/08 05:16:14;;;;;;;1.67;1.57;;;;;25.60;101350.00;;;;2079239;28;20228;-53
2022/08/08 05:17:14;;;;;;;1.67;1.57;;;;;25.60;101344.00;;;;2078842;28;20222;-53
2022/08/08 05:18:15;;;;;;;2.10;1.90;;;;;25.60;101370.00;;;;2083654;28;20275;-53
2022/08/08 05:19:15;;;;;;;2.23;1.63;;;;;25.60;101344.00;;;;2087221;28;20221;-53
2022/08/08 05:20:15;;;;;;;1.57;1.47;;;;;25.60;101369.00;;;;2087629;28;20213;-53
2022/08/08 05:21:16;;;;;;;2.10;1.90;;;;;25.60;101338.00;;;;2085497;28;20224;-58
2022/08/08 05:22:16;;;;;;;1.83;1.67;;;;;25.60;101360.00;;;;2086260;28;20620;-57
2022/08/08 05:23:16;;;;;;;2.13;1.93;;;;;25.60;101351.00;;;;2079145;28;20210;-56
2022/08/08 05:24:17;;;;;;;1.67;1.57;;;;;25.60;101355.00;;;;2079169;28;20238;-56
2022/08/08 05:25:17;;;;;;;1.97;1.80;;;;;25.60;101351.00;;;;2078742;28;20702;-52
2022/08/08 05:26:17;;;;;;;1.90;1.80;;;;;25.60;101358.00;;;;2079165;28;20721;-54
2022/08/08 05:27:18;;;;;;;1.60;1.50;;;;;25.60;101356.00;;;;2076374;28;20681;-53
2022/08/08 05:28:18;;;;;;;1.70;1.60;;;;;25.60;101349.00;;;;2078604;28;20652;-52
2022/08/08 05:29:19;;;;;;;2.00;1.83;;;;;25.60;101345.00;;;;2079158;28;20233;-53
2022/08/08 05:30:19;;;;;;;1.90;1.80;;;;;25.60;101355.00;;;;2079120;28;20229;-53
2022/08/08 05:31:19;;;;;;;1.90;1.80;;;;;24.70;101350.00;;;;2080391;28;20221;-53
2022/08/08 05:32:20;;;;;;;1.90;1.80;;;;;24.90;101351.00;;;;2087116;28;20244;-53
2022/08/08 05:33:20;;;;;;;1.80;1.60;;;;;25.10;101346.00;;;;2080599;28;20225;-53
2022/08/08 05:34:25;;;;;;;1.70;1.60;;;;;25.60;101346.00;;;;2078498;28;20244;-53
2022/08/08 05:35:25;;;;;;;1.90;1.73;;;;;25.60;101347.00;;;;2078298;28;20244;-53
2022/08/08 05:36:26;;;;;;;2.20;2.00;;;;;25.60;101334.00;;;;2070108;28;20496;-53
2022/08/08 05:37:29;;;;;;;2.20;2.00;;;;;25.60;101348.00;;;;2061152;28;20703;-53
2022/08/08 05:38:29;;;;;;;1.97;1.87;;;;;25.60;101356.00;;;;2082157;28;20221;-53
2022/08/08 05:39:30;;;;;;;2.10;1.90;;;;;25.60;101348.00;;;;2086131;28;20459;-53
2022/08/08 05:40:30;;;;;;;1.70;1.60;;;;;25.60;101348.00;;;;2085750;28;20213;-54
2022/08/08 05:41:33;;;;;;;1.87;1.77;;;;;25.60;101348.00;;;;2077892;28;20292;-52
2022/08/08 05:42:40;;;;;;;1.93;1.63;;;;;25.60;101357.00;;;;2070556;28;20206;-53
2022/08/08 05:43:41;;;;;;;1.77;1.67;;;;;25.60;101352.00;;;;2086367;28;20455;-53
2022/08/08 05:44:44;;;;;;;1.90;1.80;;;;;25.60;101357.00;;;;2087242;28;20460;-52
2022/08/08 05:45:45;;;;;;;2.23;1.93;;;;;25.60;101365.00;;;;2087127;28;20223;-53
2022/08/08 05:46:45;;;;;;;1.80;1.63;;;;;25.60;101356.00;;;;2086535;28;20456;-53
2022/08/08 05:47:45;;;;;;;1.67;1.57;;;;;25.60;101360.00;;;;2085564;28;20236;-53
2022/08/08 05:48:46;;;;;;;2.00;1.70;;;;;25.60;101358.00;;;;2079475;28;20236;-53
2022/08/08 05:49:47;;;;;;;1.90;1.80;;;;;25.60;101366.00;;;;2079015;28;20213;-53
2022/08/08 05:50:48;;;;;;;2.03;1.63;;;;;25.60;101365.00;;;;2078556;28;20221;-52